sensor_id;sensor_type;location;lat;lon;timestamp;P1;durP1;ratioP1;P2;durP2;ratioP2
68593;SDS011;55563;52.416;13.548;2023-06-24T00:00:42;5.28;;;3.88;;
68593;SDS011;55563;52.416;13.548;2023-06-24T00:02:43;4.82;;;3.90;;
68593;SDS011;55563;52.416;13.548;2023-06-24T00:04:45;5.32;;;3.78;;
68593;SDS011;55563;52.416;13.548;2023-06-24T00:06:46;5.53;;;3.72;;
68593;SDS011;55563;52.416;13.548;2023-06-24T00:08:46;5.00;;;3.92;;
68593;SDS011;55563;52.416;13.548;2023-06-24T00:10:48;5.13;;;3.95;;
68593;SDS011;55563;52.416;13.548;2023-06-24T00:14:50;6.47;;;3.85;;
68593;SDS011;55563;52.416;13.548;2023-06-24T00:16:51;5.13;;;3.70;;
68593;SDS011;55563;52.416;13.548;2023-06-24T00:18:51;5.03;;;3.60;;
68593;SDS011;55563;52.416;13.548;2023-06-24T00:20:53;5.22;;;3.65;;
68593;SDS011;55563;52.416;13.548;2023-06-24T00:22:53;6.00;;;3.67;;
68593;SDS011;55563;52.416;13.548;2023-06-24T00:24:54;7.80;;;4.53;;
68593;SDS011;55563;52.416;13.548;2023-06-24T00:26:55;5.50;;;3.90;;
68593;SDS011;55563;52.416;13.548;2023-06-24T00:28:57;6.43;;;3.95;;
68593;SDS011;55563;52.416;13.548;2023-06-24T00:30:58;5.93;;;4.05;;
68593;SDS011;55563;52.416;13.548;2023-06-24T00:32:59;5.43;;;3.90;;
68593;SDS011;55563;52.416;13.548;2023-06-24T00:35:00;7.82;;;4.05;;
68593;SDS011;55563;52.416;13.548;2023-06-24T00:37:01;6.70;;;4.32;;
68593;SDS011;55563;52.416;13.548;2023-06-24T00:39:03;6.65;;;4.45;;
68593;SDS011;55563;52.416;13.548;2023-06-24T00:41:05;7.72;;;4.45;;
68593;SDS011;55563;52.416;13.548;2023-06-24T00:43:06;6.78;;;4.45;;
68593;SDS011;55563;52.416;13.548;2023-06-24T00:45:08;6.45;;;4.28;;
68593;SDS011;55563;52.416;13.548;2023-06-24T00:47:10;6.38;;;4.75;;
68593;SDS011;55563;52.416;13.548;2023-06-24T00:49:11;7.25;;;4.97;;
68593;SDS011;55563;52.416;13.548;2023-06-24T00:51:14;6.75;;;4.40;;
68593;SDS011;55563;52.416;13.548;2023-06-24T00:53:18;6.60;;;4.63;;
68593;SDS011;55563;52.416;13.548;2023-06-24T00:55:19;6.82;;;4.85;;
68593;SDS011;55563;52.416;13.548;2023-06-24T00:57:21;6.97;;;4.90;;
68593;SDS011;55563;52.416;13.548;2023-06-24T00:59:26;6.43;;;5.03;;
68593;SDS011;55563;52.416;13.548;2023-06-24T01:01:32;6.72;;;4.63;;
68593;SDS011;55563;52.416;13.548;2023-06-24T01:03:36;5.88;;;4.80;;
68593;SDS011;55563;52.416;13.548;2023-06-24T01:05:37;7.35;;;5.32;;
68593;SDS011;55563;52.416;13.548;2023-06-24T01:07:38;7.35;;;4.75;;
68593;SDS011;55563;52.416;13.548;2023-06-24T01:09:39;7.10;;;5.18;;
68593;SDS011;55563;52.416;13.548;2023-06-24T01:11:41;8.77;;;5.30;;
68593;SDS011;55563;52.416;13.548;2023-06-24T01:13:42;10.40;;;6.18;;
68593;SDS011;55563;52.416;13.548;2023-06-24T01:15:43;8.02;;;5.05;;
68593;SDS011;55563;52.416;13.548;2023-06-24T01:17:52;9.38;;;6.05;;
68593;SDS011;55563;52.416;13.548;2023-06-24T01:20:20;9.73;;;6.15;;
68593;SDS011;55563;52.416;13.548;2023-06-24T01:22:37;7.93;;;5.65;;
68593;SDS011;55563;52.416;13.548;2023-06-24T01:27:32;9.38;;;6.03;;
68593;SDS011;55563;52.416;13.548;2023-06-24T01:30:00;7.40;;;5.43;;
68593;SDS011;55563;52.416;13.548;2023-06-24T01:34:40;8.00;;;5.82;;
68593;SDS011;55563;52.416;13.548;2023-06-24T01:36:51;9.07;;;5.93;;
68593;SDS011;55563;52.416;13.548;2023-06-24T01:39:02;8.45;;;6.07;;
68593;SDS011;55563;52.416;13.548;2023-06-24T01:41:07;8.98;;;5.72;;
68593;SDS011;55563;52.416;13.548;2023-06-24T01:43:10;10.43;;;6.35;;
68593;SDS011;55563;52.416;13.548;2023-06-24T01:45:15;10.00;;;5.72;;
68593;SDS011;55563;52.416;13.548;2023-06-24T01:47:19;9.80;;;5.85;;
68593;SDS011;55563;52.416;13.548;2023-06-24T01:49:23;8.82;;;6.00;;
68593;SDS011;55563;52.416;13.548;2023-06-24T01:51:29;8.45;;;5.80;;
68593;SDS011;55563;52.416;13.548;2023-06-24T01:53:33;9.07;;;6.13;;
68593;SDS011;55563;52.416;13.548;2023-06-24T01:55:36;8.25;;;5.93;;
68593;SDS011;55563;52.416;13.548;2023-06-24T01:57:39;9.88;;;7.05;;
68593;SDS011;55563;52.416;13.548;2023-06-24T01:59:42;8.48;;;6.65;;
68593;SDS011;55563;52.416;13.548;2023-06-24T02:01:45;8.95;;;6.22;;
68593;SDS011;55563;52.416;13.548;2023-06-24T02:03:47;9.55;;;6.22;;
68593;SDS011;55563;52.416;13.548;2023-06-24T02:05:49;6.95;;;5.57;;
68593;SDS011;55563;52.416;13.548;2023-06-24T02:07:53;8.60;;;5.88;;
68593;SDS011;55563;52.416;13.548;2023-06-24T02:09:54;8.00;;;5.75;;
68593;SDS011;55563;52.416;13.548;2023-06-24T02:11:56;7.18;;;5.78;;
68593;SDS011;55563;52.416;13.548;2023-06-24T02:13:57;8.63;;;6.78;;
68593;SDS011;55563;52.416;13.548;2023-06-24T02:16:01;9.00;;;5.85;;
68593;SDS011;55563;52.416;13.548;2023-06-24T02:18:04;9.48;;;6.38;;
68593;SDS011;55563;52.416;13.548;2023-06-24T02:20:06;8.10;;;5.95;;
68593;SDS011;55563;52.416;13.548;2023-06-24T02:22:10;8.38;;;5.75;;
68593;SDS011;55563;52.416;13.548;2023-06-24T02:24:12;8.05;;;5.88;;
68593;SDS011;55563;52.416;13.548;2023-06-24T02:26:13;7.40;;;5.80;;
68593;SDS011;55563;52.416;13.548;2023-06-24T02:28:14;7.57;;;5.57;;
68593;SDS011;55563;52.416;13.548;2023-06-24T02:30:16;7.78;;;5.75;;
68593;SDS011;55563;52.416;13.548;2023-06-24T02:32:17;8.32;;;5.75;;
68593;SDS011;55563;52.416;13.548;2023-06-24T02:34:19;8.77;;;5.90;;
68593;SDS011;55563;52.416;13.548;2023-06-24T02:38:22;6.90;;;5.07;;
68593;SDS011;55563;52.416;13.548;2023-06-24T02:40:23;7.22;;;5.40;;
68593;SDS011;55563;52.416;13.548;2023-06-24T02:42:27;8.05;;;5.40;;
68593;SDS011;55563;52.416;13.548;2023-06-24T02:44:28;6.95;;;5.20;;
68593;SDS011;55563;52.416;13.548;2023-06-24T02:46:29;8.48;;;5.55;;
68593;SDS011;55563;52.416;13.548;2023-06-24T02:48:33;7.55;;;5.07;;
68593;SDS011;55563;52.416;13.548;2023-06-24T02:50:37;7.55;;;5.10;;
68593;SDS011;55563;52.416;13.548;2023-06-24T02:52:41;7.70;;;5.45;;
68593;SDS011;55563;52.416;13.548;2023-06-24T02:54:45;8.27;;;5.50;;
68593;SDS011;55563;52.416;13.548;2023-06-24T02:57:14;7.43;;;6.10;;
68593;SDS011;55563;52.416;13.548;2023-06-24T02:59:36;8.40;;;6.47;;
68593;SDS011;55563;52.416;13.548;2023-06-24T03:01:42;7.78;;;6.38;;
68593;SDS011;55563;52.416;13.548;2023-06-24T03:03:46;8.18;;;6.53;;
68593;SDS011;55563;52.416;13.548;2023-06-24T03:05:49;8.07;;;6.05;;
68593;SDS011;55563;52.416;13.548;2023-06-24T03:07:53;7.82;;;6.50;;
68593;SDS011;55563;52.416;13.548;2023-06-24T03:09:55;8.75;;;6.57;;
68593;SDS011;55563;52.416;13.548;2023-06-24T03:11:56;8.60;;;6.18;;
68593;SDS011;55563;52.416;13.548;2023-06-24T03:14:07;8.10;;;6.35;;
68593;SDS011;55563;52.416;13.548;2023-06-24T03:16:12;8.20;;;6.00;;
68593;SDS011;55563;52.416;13.548;2023-06-24T03:18:21;8.23;;;6.25;;
68593;SDS011;55563;52.416;13.548;2023-06-24T03:20:23;7.50;;;6.38;;
68593;SDS011;55563;52.416;13.548;2023-06-24T03:24:26;8.95;;;6.30;;
68593;SDS011;55563;52.416;13.548;2023-06-24T03:26:36;8.18;;;6.90;;
68593;SDS011;55563;52.416;13.548;2023-06-24T03:28:39;7.82;;;5.80;;
68593;SDS011;55563;52.416;13.548;2023-06-24T03:30:45;7.20;;;5.53;;
68593;SDS011;55563;52.416;13.548;2023-06-24T03:32:50;7.13;;;5.90;;
68593;SDS011;55563;52.416;13.548;2023-06-24T03:34:52;7.70;;;5.85;;
68593;SDS011;55563;52.416;13.548;2023-06-24T03:36:53;7.20;;;5.93;;
68593;SDS011;55563;52.416;13.548;2023-06-24T03:38:54;8.20;;;5.93;;
68593;SDS011;55563;52.416;13.548;2023-06-24T03:40:55;9.20;;;6.40;;
68593;SDS011;55563;52.416;13.548;2023-06-24T03:42:56;7.03;;;5.60;;
68593;SDS011;55563;52.416;13.548;2023-06-24T03:44:57;7.13;;;5.82;;
68593;SDS011;55563;52.416;13.548;2023-06-24T03:46:57;12.10;;;6.80;;
68593;SDS011;55563;52.416;13.548;2023-06-24T03:48:58;7.88;;;6.15;;
68593;SDS011;55563;52.416;13.548;2023-06-24T03:51:02;7.07;;;5.93;;
68593;SDS011;55563;52.416;13.548;2023-06-24T03:53:04;8.35;;;6.25;;
68593;SDS011;55563;52.416;13.548;2023-06-24T03:57:06;9.23;;;6.68;;
68593;SDS011;55563;52.416;13.548;2023-06-24T03:59:10;8.43;;;6.90;;
68593;SDS011;55563;52.416;13.548;2023-06-24T04:01:10;9.40;;;6.57;;
68593;SDS011;55563;52.416;13.548;2023-06-24T04:03:11;8.98;;;6.72;;
68593;SDS011;55563;52.416;13.548;2023-06-24T04:05:13;9.50;;;7.00;;
68593;SDS011;55563;52.416;13.548;2023-06-24T04:07:14;9.13;;;6.28;;
68593;SDS011;55563;52.416;13.548;2023-06-24T04:09:14;10.23;;;7.20;;
68593;SDS011;55563;52.416;13.548;2023-06-24T04:11:15;9.68;;;6.72;;
68593;SDS011;55563;52.416;13.548;2023-06-24T04:13:16;10.30;;;7.43;;
68593;SDS011;55563;52.416;13.548;2023-06-24T04:15:16;8.10;;;5.70;;
68593;SDS011;55563;52.416;13.548;2023-06-24T04:17:17;10.40;;;6.60;;
68593;SDS011;55563;52.416;13.548;2023-06-24T04:19:18;8.18;;;6.03;;
68593;SDS011;55563;52.416;13.548;2023-06-24T04:21:18;8.80;;;5.93;;
68593;SDS011;55563;52.416;13.548;2023-06-24T04:23:19;8.45;;;6.22;;
68593;SDS011;55563;52.416;13.548;2023-06-24T04:25:20;9.18;;;6.35;;
68593;SDS011;55563;52.416;13.548;2023-06-24T04:27:20;7.95;;;6.13;;
68593;SDS011;55563;52.416;13.548;2023-06-24T04:29:21;8.20;;;5.65;;
68593;SDS011;55563;52.416;13.548;2023-06-24T04:31:22;6.63;;;5.07;;
68593;SDS011;55563;52.416;13.548;2023-06-24T04:33:22;6.90;;;5.68;;
68593;SDS011;55563;52.416;13.548;2023-06-24T04:35:24;6.80;;;5.32;;
68593;SDS011;55563;52.416;13.548;2023-06-24T04:37:25;6.57;;;5.32;;
68593;SDS011;55563;52.416;13.548;2023-06-24T04:39:28;6.95;;;5.80;;
68593;SDS011;55563;52.416;13.548;2023-06-24T04:41:28;7.53;;;5.78;;
68593;SDS011;55563;52.416;13.548;2023-06-24T04:43:29;7.30;;;6.13;;
68593;SDS011;55563;52.416;13.548;2023-06-24T04:45:29;8.30;;;5.60;;
68593;SDS011;55563;52.416;13.548;2023-06-24T04:47:30;9.68;;;5.72;;
68593;SDS011;55563;52.416;13.548;2023-06-24T04:49:31;8.07;;;6.50;;
68593;SDS011;55563;52.416;13.548;2023-06-24T04:51:32;6.32;;;5.43;;
68593;SDS011;55563;52.416;13.548;2023-06-24T04:53:32;7.40;;;5.60;;
68593;SDS011;55563;52.416;13.548;2023-06-24T04:57:34;9.73;;;6.70;;
68593;SDS011;55563;52.416;13.548;2023-06-24T04:59:35;7.75;;;6.03;;
68593;SDS011;55563;52.416;13.548;2023-06-24T05:01:36;8.55;;;6.38;;
68593;SDS011;55563;52.416;13.548;2023-06-24T05:03:37;8.02;;;6.05;;
68593;SDS011;55563;52.416;13.548;2023-06-24T05:05:37;8.00;;;6.38;;
68593;SDS011;55563;52.416;13.548;2023-06-24T05:07:38;7.20;;;5.95;;
68593;SDS011;55563;52.416;13.548;2023-06-24T05:09:39;8.13;;;6.22;;
68593;SDS011;55563;52.416;13.548;2023-06-24T05:11:40;8.82;;;6.28;;
68593;SDS011;55563;52.416;13.548;2023-06-24T05:13:41;8.98;;;6.47;;
68593;SDS011;55563;52.416;13.548;2023-06-24T05:15:42;7.57;;;6.10;;
68593;SDS011;55563;52.416;13.548;2023-06-24T05:17:42;7.93;;;4.97;;
68593;SDS011;55563;52.416;13.548;2023-06-24T05:19:43;7.90;;;6.25;;
68593;SDS011;55563;52.416;13.548;2023-06-24T05:21:44;7.70;;;5.20;;
68593;SDS011;55563;52.416;13.548;2023-06-24T05:23:44;7.45;;;5.80;;
68593;SDS011;55563;52.416;13.548;2023-06-24T05:25:45;10.30;;;6.07;;
68593;SDS011;55563;52.416;13.548;2023-06-24T05:27:46;7.35;;;6.25;;
68593;SDS011;55563;52.416;13.548;2023-06-24T05:29:46;6.18;;;5.43;;
68593;SDS011;55563;52.416;13.548;2023-06-24T05:31:47;6.22;;;5.30;;
68593;SDS011;55563;52.416;13.548;2023-06-24T05:33:48;6.38;;;5.45;;
68593;SDS011;55563;52.416;13.548;2023-06-24T05:35:49;7.88;;;5.47;;
68593;SDS011;55563;52.416;13.548;2023-06-24T05:37:50;6.75;;;4.90;;
68593;SDS011;55563;52.416;13.548;2023-06-24T05:39:51;7.40;;;4.30;;
68593;SDS011;55563;52.416;13.548;2023-06-24T05:44:08;5.32;;;4.78;;
68593;SDS011;55563;52.416;13.548;2023-06-24T05:46:10;6.45;;;5.00;;
68593;SDS011;55563;52.416;13.548;2023-06-24T05:50:11;5.90;;;5.30;;
68593;SDS011;55563;52.416;13.548;2023-06-24T05:52:12;6.90;;;4.60;;
68593;SDS011;55563;52.416;13.548;2023-06-24T05:56:13;5.65;;;4.78;;
68593;SDS011;55563;52.416;13.548;2023-06-24T05:58:13;5.63;;;4.50;;
68593;SDS011;55563;52.416;13.548;2023-06-24T06:00:14;7.22;;;5.43;;
68593;SDS011;55563;52.416;13.548;2023-06-24T06:02:16;5.78;;;4.90;;
68593;SDS011;55563;52.416;13.548;2023-06-24T06:06:17;6.75;;;5.53;;
68593;SDS011;55563;52.416;13.548;2023-06-24T06:08:18;5.93;;;4.88;;
68593;SDS011;55563;52.416;13.548;2023-06-24T06:10:18;5.57;;;4.90;;
68593;SDS011;55563;52.416;13.548;2023-06-24T06:12:19;6.72;;;4.75;;
68593;SDS011;55563;52.416;13.548;2023-06-24T06:16:20;6.35;;;4.60;;
68593;SDS011;55563;52.416;13.548;2023-06-24T06:20:22;7.65;;;4.57;;
68593;SDS011;55563;52.416;13.548;2023-06-24T06:22:22;5.38;;;4.15;;
68593;SDS011;55563;52.416;13.548;2023-06-24T06:24:23;6.20;;;5.13;;
68593;SDS011;55563;52.416;13.548;2023-06-24T06:28:24;5.13;;;4.63;;
68593;SDS011;55563;52.416;13.548;2023-06-24T06:30:25;5.55;;;4.43;;
68593;SDS011;55563;52.416;13.548;2023-06-24T06:34:26;4.80;;;4.30;;
68593;SDS011;55563;52.416;13.548;2023-06-24T06:36:26;4.80;;;3.92;;
68593;SDS011;55563;52.416;13.548;2023-06-24T06:40:28;4.72;;;4.00;;
68593;SDS011;55563;52.416;13.548;2023-06-24T06:44:29;5.43;;;4.13;;
68593;SDS011;55563;52.416;13.548;2023-06-24T06:46:30;5.22;;;4.47;;
68593;SDS011;55563;52.416;13.548;2023-06-24T06:50:31;6.50;;;4.70;;
68593;SDS011;55563;52.416;13.548;2023-06-24T06:54:32;4.65;;;4.10;;
68593;SDS011;55563;52.416;13.548;2023-06-24T06:58:33;7.47;;;4.28;;
68593;SDS011;55563;52.416;13.548;2023-06-24T07:02:34;5.05;;;4.18;;
68593;SDS011;55563;52.416;13.548;2023-06-24T07:06:35;4.00;;;3.60;;
68593;SDS011;55563;52.416;13.548;2023-06-24T07:10:36;4.10;;;3.47;;
68593;SDS011;55563;52.416;13.548;2023-06-24T07:14:38;5.03;;;4.07;;
68593;SDS011;55563;52.416;13.548;2023-06-24T07:18:39;5.10;;;4.03;;
68593;SDS011;55563;52.416;13.548;2023-06-24T07:22:40;4.30;;;3.80;;
68593;SDS011;55563;52.416;13.548;2023-06-24T07:26:41;4.60;;;3.70;;
68593;SDS011;55563;52.416;13.548;2023-06-24T07:30:42;4.53;;;3.75;;
68593;SDS011;55563;52.416;13.548;2023-06-24T07:32:43;4.20;;;3.70;;
68593;SDS011;55563;52.416;13.548;2023-06-24T07:36:45;3.72;;;3.20;;
68593;SDS011;55563;52.416;13.548;2023-06-24T07:40:46;4.03;;;3.30;;
68593;SDS011;55563;52.416;13.548;2023-06-24T07:44:47;6.15;;;3.50;;
68593;SDS011;55563;52.416;13.548;2023-06-24T07:46:48;4.18;;;3.20;;
68593;SDS011;55563;52.416;13.548;2023-06-24T07:48:51;3.47;;;3.17;;
68593;SDS011;55563;52.416;13.548;2023-06-24T07:50:51;3.97;;;3.60;;
68593;SDS011;55563;52.416;13.548;2023-06-24T07:54:53;3.60;;;3.00;;
68593;SDS011;55563;52.416;13.548;2023-06-24T07:58:54;3.83;;;2.88;;
68593;SDS011;55563;52.416;13.548;2023-06-24T08:02:56;3.53;;;3.22;;
68593;SDS011;55563;52.416;13.548;2023-06-24T08:04:57;3.55;;;3.25;;
68593;SDS011;55563;52.416;13.548;2023-06-24T08:06:58;4.72;;;3.22;;
68593;SDS011;55563;52.416;13.548;2023-06-24T08:10:59;4.53;;;3.10;;
68593;SDS011;55563;52.416;13.548;2023-06-24T08:15:01;5.97;;;4.55;;
68593;SDS011;55563;52.416;13.548;2023-06-24T08:17:02;4.28;;;3.50;;
68593;SDS011;55563;52.416;13.548;2023-06-24T08:19:03;3.38;;;3.08;;
68593;SDS011;55563;52.416;13.548;2023-06-24T08:23:04;3.58;;;3.20;;
68593;SDS011;55563;52.416;13.548;2023-06-24T08:27:05;4.13;;;3.38;;
68593;SDS011;55563;52.416;13.548;2023-06-24T08:31:08;3.15;;;2.50;;
68593;SDS011;55563;52.416;13.548;2023-06-24T08:33:08;3.63;;;3.03;;
68593;SDS011;55563;52.416;13.548;2023-06-24T08:37:10;3.20;;;2.25;;
68593;SDS011;55563;52.416;13.548;2023-06-24T08:41:11;3.33;;;2.95;;
68593;SDS011;55563;52.416;13.548;2023-06-24T08:45:12;2.75;;;2.50;;
68593;SDS011;55563;52.416;13.548;2023-06-24T08:49:17;2.67;;;2.33;;
68593;SDS011;55563;52.416;13.548;2023-06-24T08:51:35;2.40;;;2.20;;
68593;SDS011;55563;52.416;13.548;2023-06-24T08:53:42;2.53;;;2.13;;
68593;SDS011;55563;52.416;13.548;2023-06-24T08:55:44;3.17;;;2.30;;
68593;SDS011;55563;52.416;13.548;2023-06-24T08:57:46;2.72;;;2.30;;
68593;SDS011;55563;52.416;13.548;2023-06-24T09:01:47;2.90;;;2.40;;
68593;SDS011;55563;52.416;13.548;2023-06-24T09:05:48;3.13;;;2.42;;
68593;SDS011;55563;52.416;13.548;2023-06-24T09:07:49;2.38;;;2.15;;
68593;SDS011;55563;52.416;13.548;2023-06-24T09:11:54;3.50;;;2.50;;
68593;SDS011;55563;52.416;13.548;2023-06-24T09:13:57;2.80;;;2.20;;
68593;SDS011;55563;52.416;13.548;2023-06-24T09:15:58;3.00;;;2.40;;
68593;SDS011;55563;52.416;13.548;2023-06-24T09:17:59;3.08;;;2.20;;
68593;SDS011;55563;52.416;13.548;2023-06-24T09:20:04;3.42;;;2.17;;
68593;SDS011;55563;52.416;13.548;2023-06-24T09:22:06;2.50;;;2.28;;
68593;SDS011;55563;52.416;13.548;2023-06-24T09:24:08;2.58;;;2.30;;
68593;SDS011;55563;52.416;13.548;2023-06-24T09:26:10;3.00;;;2.30;;
68593;SDS011;55563;52.416;13.548;2023-06-24T09:28:12;3.28;;;2.22;;
68593;SDS011;55563;52.416;13.548;2023-06-24T09:30:17;2.90;;;2.40;;
68593;SDS011;55563;52.416;13.548;2023-06-24T09:32:20;2.83;;;2.20;;
68593;SDS011;55563;52.416;13.548;2023-06-24T09:34:21;3.58;;;2.25;;
68593;SDS011;55563;52.416;13.548;2023-06-24T09:38:31;2.80;;;2.28;;
68593;SDS011;55563;52.416;13.548;2023-06-24T09:40:36;4.53;;;2.47;;
68593;SDS011;55563;52.416;13.548;2023-06-24T09:42:37;3.75;;;2.45;;
68593;SDS011;55563;52.416;13.548;2023-06-24T09:44:55;3.28;;;2.40;;
68593;SDS011;55563;52.416;13.548;2023-06-24T09:46:56;2.50;;;2.10;;
68593;SDS011;55563;52.416;13.548;2023-06-24T09:48:57;3.38;;;2.13;;
68593;SDS011;55563;52.416;13.548;2023-06-24T09:50:59;3.35;;;2.20;;
68593;SDS011;55563;52.416;13.548;2023-06-24T09:53:02;2.88;;;2.28;;
68593;SDS011;55563;52.416;13.548;2023-06-24T09:55:04;3.97;;;2.22;;
68593;SDS011;55563;52.416;13.548;2023-06-24T09:57:07;5.18;;;2.15;;
68593;SDS011;55563;52.416;13.548;2023-06-24T09:59:10;2.65;;;2.15;;
68593;SDS011;55563;52.416;13.548;2023-06-24T10:01:13;2.97;;;2.17;;
68593;SDS011;55563;52.416;13.548;2023-06-24T10:03:13;3.17;;;2.03;;
68593;SDS011;55563;52.416;13.548;2023-06-24T10:05:14;2.75;;;2.25;;
68593;SDS011;55563;52.416;13.548;2023-06-24T10:09:17;3.00;;;2.08;;
68593;SDS011;55563;52.416;13.548;2023-06-24T10:11:19;2.75;;;2.35;;
68593;SDS011;55563;52.416;13.548;2023-06-24T10:13:21;3.72;;;2.28;;
68593;SDS011;55563;52.416;13.548;2023-06-24T10:15:22;2.47;;;1.95;;
68593;SDS011;55563;52.416;13.548;2023-06-24T10:19:23;4.65;;;2.40;;
68593;SDS011;55563;52.416;13.548;2023-06-24T10:23:51;6.85;;;3.60;;
68593;SDS011;55563;52.416;13.548;2023-06-24T10:25:53;3.35;;;2.63;;
68593;SDS011;55563;52.416;13.548;2023-06-24T10:27:54;3.97;;;2.40;;
68593;SDS011;55563;52.416;13.548;2023-06-24T10:31:56;3.50;;;2.90;;
68593;SDS011;55563;52.416;13.548;2023-06-24T10:34:02;4.63;;;2.60;;
68593;SDS011;55563;52.416;13.548;2023-06-24T10:36:32;2.83;;;2.45;;
68593;SDS011;55563;52.416;13.548;2023-06-24T10:38:32;2.80;;;2.30;;
68593;SDS011;55563;52.416;13.548;2023-06-24T10:40:34;2.47;;;2.05;;
68593;SDS011;55563;52.416;13.548;2023-06-24T10:42:38;2.78;;;2.00;;
68593;SDS011;55563;52.416;13.548;2023-06-24T10:44:46;2.40;;;2.10;;
68593;SDS011;55563;52.416;13.548;2023-06-24T10:46:54;2.20;;;1.98;;
68593;SDS011;55563;52.416;13.548;2023-06-24T10:48:55;4.82;;;1.92;;
68593;SDS011;55563;52.416;13.548;2023-06-24T10:50:56;2.92;;;1.90;;
68593;SDS011;55563;52.416;13.548;2023-06-24T10:52:56;2.97;;;1.92;;
68593;SDS011;55563;52.416;13.548;2023-06-24T10:54:58;2.60;;;1.90;;
68593;SDS011;55563;52.416;13.548;2023-06-24T10:56:59;2.70;;;2.08;;
68593;SDS011;55563;52.416;13.548;2023-06-24T10:58:59;2.45;;;2.03;;
68593;SDS011;55563;52.416;13.548;2023-06-24T11:01:08;2.38;;;1.73;;
68593;SDS011;55563;52.416;13.548;2023-06-24T11:03:10;1.98;;;1.80;;
68593;SDS011;55563;52.416;13.548;2023-06-24T11:05:13;2.05;;;1.85;;
68593;SDS011;55563;52.416;13.548;2023-06-24T11:07:13;3.25;;;2.30;;
68593;SDS011;55563;52.416;13.548;2023-06-24T11:09:14;2.67;;;2.05;;
68593;SDS011;55563;52.416;13.548;2023-06-24T11:11:19;2.30;;;2.10;;
68593;SDS011;55563;52.416;13.548;2023-06-24T11:13:21;2.40;;;2.20;;
68593;SDS011;55563;52.416;13.548;2023-06-24T11:15:22;2.63;;;1.80;;
68593;SDS011;55563;52.416;13.548;2023-06-24T11:17:22;2.72;;;2.10;;
68593;SDS011;55563;52.416;13.548;2023-06-24T11:19:23;2.38;;;2.10;;
68593;SDS011;55563;52.416;13.548;2023-06-24T11:23:32;2.30;;;2.10;;
68593;SDS011;55563;52.416;13.548;2023-06-24T11:25:38;2.75;;;1.88;;
68593;SDS011;55563;52.416;13.548;2023-06-24T11:27:40;2.22;;;2.00;;
68593;SDS011;55563;52.416;13.548;2023-06-24T11:29:40;2.65;;;2.08;;
68593;SDS011;55563;52.416;13.548;2023-06-24T11:31:41;2.35;;;2.10;;
68593;SDS011;55563;52.416;13.548;2023-06-24T11:33:41;2.33;;;2.13;;
68593;SDS011;55563;52.416;13.548;2023-06-24T11:35:42;1.80;;;1.70;;
68593;SDS011;55563;52.416;13.548;2023-06-24T11:37:44;2.78;;;2.03;;
68593;SDS011;55563;52.416;13.548;2023-06-24T11:39:59;2.28;;;1.85;;
68593;SDS011;55563;52.416;13.548;2023-06-24T11:42:06;2.38;;;2.15;;
68593;SDS011;55563;52.416;13.548;2023-06-24T11:44:09;2.60;;;2.38;;
68593;SDS011;55563;52.416;13.548;2023-06-24T11:46:10;2.45;;;1.98;;
68593;SDS011;55563;52.416;13.548;2023-06-24T11:48:11;3.10;;;1.92;;
68593;SDS011;55563;52.416;13.548;2023-06-24T11:50:11;2.28;;;1.88;;
68593;SDS011;55563;52.416;13.548;2023-06-24T11:54:13;3.08;;;2.30;;
68593;SDS011;55563;52.416;13.548;2023-06-24T11:56:15;2.28;;;2.08;;
68593;SDS011;55563;52.416;13.548;2023-06-24T11:58:18;3.17;;;2.17;;
68593;SDS011;55563;52.416;13.548;2023-06-24T12:00:20;3.10;;;2.22;;
68593;SDS011;55563;52.416;13.548;2023-06-24T12:02:23;2.38;;;2.10;;
68593;SDS011;55563;52.416;13.548;2023-06-24T12:04:28;2.22;;;1.92;;
68593;SDS011;55563;52.416;13.548;2023-06-24T12:06:30;2.55;;;2.13;;
68593;SDS011;55563;52.416;13.548;2023-06-24T12:08:30;2.97;;;2.40;;
68593;SDS011;55563;52.416;13.548;2023-06-24T12:12:33;2.15;;;1.77;;
68593;SDS011;55563;52.416;13.548;2023-06-24T12:14:34;2.83;;;2.00;;
68593;SDS011;55563;52.416;13.548;2023-06-24T12:16:34;2.28;;;2.08;;
68593;SDS011;55563;52.416;13.548;2023-06-24T12:18:35;2.45;;;2.20;;
68593;SDS011;55563;52.416;13.548;2023-06-24T12:20:36;2.30;;;2.10;;
68593;SDS011;55563;52.416;13.548;2023-06-24T12:22:36;3.67;;;3.03;;
68593;SDS011;55563;52.416;13.548;2023-06-24T12:26:37;2.40;;;2.20;;
68593;SDS011;55563;52.416;13.548;2023-06-24T12:30:39;2.67;;;1.80;;
68593;SDS011;55563;52.416;13.548;2023-06-24T12:32:39;2.30;;;1.80;;
68593;SDS011;55563;52.416;13.548;2023-06-24T12:34:40;2.63;;;1.83;;
68593;SDS011;55563;52.416;13.548;2023-06-24T12:36:41;2.40;;;1.90;;
68593;SDS011;55563;52.416;13.548;2023-06-24T12:40:42;2.03;;;1.83;;
68593;SDS011;55563;52.416;13.548;2023-06-24T12:42:43;2.15;;;1.95;;
68593;SDS011;55563;52.416;13.548;2023-06-24T12:44:44;2.10;;;1.90;;
68593;SDS011;55563;52.416;13.548;2023-06-24T12:46:44;2.92;;;2.45;;
68593;SDS011;55563;52.416;13.548;2023-06-24T12:48:45;3.10;;;2.20;;
68593;SDS011;55563;52.416;13.548;2023-06-24T12:50:46;2.53;;;1.88;;
68593;SDS011;55563;52.416;13.548;2023-06-24T12:52:47;1.95;;;1.70;;
68593;SDS011;55563;52.416;13.548;2023-06-24T12:54:48;3.28;;;2.13;;
68593;SDS011;55563;52.416;13.548;2023-06-24T12:56:49;2.58;;;1.90;;
68593;SDS011;55563;52.416;13.548;2023-06-24T12:58:49;3.40;;;2.03;;
68593;SDS011;55563;52.416;13.548;2023-06-24T13:00:50;2.63;;;2.00;;
68593;SDS011;55563;52.416;13.548;2023-06-24T13:02:50;3.47;;;2.25;;
68593;SDS011;55563;52.416;13.548;2023-06-24T13:04:51;2.47;;;2.08;;
68593;SDS011;55563;52.416;13.548;2023-06-24T13:06:52;2.30;;;1.98;;
68593;SDS011;55563;52.416;13.548;2023-06-24T13:10:53;2.45;;;2.03;;
68593;SDS011;55563;52.416;13.548;2023-06-24T13:12:54;2.22;;;1.95;;
68593;SDS011;55563;52.416;13.548;2023-06-24T13:14:56;3.60;;;3.03;;
68593;SDS011;55563;52.416;13.548;2023-06-24T13:16:56;4.70;;;3.72;;
68593;SDS011;55563;52.416;13.548;2023-06-24T13:20:57;3.08;;;2.30;;
68593;SDS011;55563;52.416;13.548;2023-06-24T13:24:59;3.10;;;2.20;;
68593;SDS011;55563;52.416;13.548;2023-06-24T13:27:00;2.33;;;1.90;;
68593;SDS011;55563;52.416;13.548;2023-06-24T13:29:00;2.95;;;2.20;;
68593;SDS011;55563;52.416;13.548;2023-06-24T13:31:03;2.95;;;2.33;;
68593;SDS011;55563;52.416;13.548;2023-06-24T13:33:03;2.75;;;2.20;;
68593;SDS011;55563;52.416;13.548;2023-06-24T13:35:04;2.40;;;2.00;;
68593;SDS011;55563;52.416;13.548;2023-06-24T13:37:05;2.10;;;1.90;;
68593;SDS011;55563;52.416;13.548;2023-06-24T13:39:07;2.58;;;2.13;;
68593;SDS011;55563;52.416;13.548;2023-06-24T13:41:09;2.67;;;2.20;;
68593;SDS011;55563;52.416;13.548;2023-06-24T13:43:09;2.90;;;2.35;;
68593;SDS011;55563;52.416;13.548;2023-06-24T13:47:11;2.40;;;2.20;;
68593;SDS011;55563;52.416;13.548;2023-06-24T13:49:11;2.47;;;2.10;;
68593;SDS011;55563;52.416;13.548;2023-06-24T13:51:12;2.00;;;1.80;;
68593;SDS011;55563;52.416;13.548;2023-06-24T13:53:13;3.53;;;2.10;;
68593;SDS011;55563;52.416;13.548;2023-06-24T13:57:14;3.28;;;2.20;;
68593;SDS011;55563;52.416;13.548;2023-06-24T13:59:16;2.40;;;2.05;;
68593;SDS011;55563;52.416;13.548;2023-06-24T14:01:16;2.40;;;2.15;;
68593;SDS011;55563;52.416;13.548;2023-06-24T14:03:17;2.70;;;2.40;;
68593;SDS011;55563;52.416;13.548;2023-06-24T14:05:18;6.00;;;3.13;;
68593;SDS011;55563;52.416;13.548;2023-06-24T14:07:19;7.30;;;3.70;;
68593;SDS011;55563;52.416;13.548;2023-06-24T14:09:19;3.58;;;2.55;;
68593;SDS011;55563;52.416;13.548;2023-06-24T14:11:20;3.92;;;2.20;;